メインページ
METAR-TAF:

METAR-TAF

空港 :

ラロトンガ島, クック諸島

ラロトンガ国際空港

緯度: 21-12S, 経度: 159-49W, 海抜: 7m

現時点の気象観測

当レポートは10分前の16:00(UTC)に作成
の風 6kt
気温 25°C
湿度 94%
気圧 1016 hPa
視程10km以上
高度1500ftの雲は散在している
近辺でにわか雨

METAR: NCRG 231600Z 09006KT 9999 VCSH SCT015 25/24 Q1016 RMK SPECI CONDX CEASED

時間: 06:10 (16:10 UTC)

予報

当レポートは5時間1分前の11:09(UTC)に作成
予報は23日の 12時(UTC)から 24日の 12時(UTC)まで有効
東/北東の風 8kt
視程10km以上
高度1500ftの雲は散在している
高度9000ftの千切れ雲あり
確率 30% :
24日の 06時(UTC)から 24日の 12時(UTC)まで一時的に
視程: 5000m
高度1400ftの千切れ雲あり
にわか雨

TAF: NCRG 231109Z 2312/2412 06008KT 9999 SCT015 BKN090 PROB30 TEMPO 2406/2412 5000 SHRA BKN014

4,000以上の空港の気象観測と天気予報(METAR報とTAF報)

利用可能な観測所は地図上に黄色い丸と赤い丸で示す。

丸の上にカーソルを重ねると観測所名を参照できる。

次にクリックすると気象観測と天気予報を参照できる。

マップの切り替え:黒色「×」印の緑ボタンをクリックして拡大、「-」印の緑ボタンをクリックして縮小、緑色の三角印をクリックして隣りの地図に切り替え


METAR-TAF: